sensor_id;sensor_type;location;lat;lon;timestamp;pressure;altitude;pressure_sealevel;temperature;humidity
11830;BME280;5972;42.134;24.718;2024-03-06T00:02:15;99530.50;;;10.13;100.00
11830;BME280;5972;42.134;24.718;2024-03-06T00:04:42;99541.44;;;10.16;100.00
11830;BME280;5972;42.134;24.718;2024-03-06T00:07:09;99525.75;;;10.10;100.00
11830;BME280;5972;42.134;24.718;2024-03-06T00:09:36;99537.13;;;10.15;100.00
11830;BME280;5972;42.134;24.718;2024-03-06T00:12:03;99552.38;;;10.20;100.00
11830;BME280;5972;42.134;24.718;2024-03-06T00:14:33;99513.84;;;9.98;100.00
11830;BME280;5972;42.134;24.718;2024-03-06T00:17:02;99530.41;;;10.21;100.00
11830;BME280;5972;42.134;24.718;2024-03-06T00:19:30;99542.00;;;10.22;100.00
11830;BME280;5972;42.134;24.718;2024-03-06T00:21:57;99541.69;;;10.23;100.00
11830;BME280;5972;42.134;24.718;2024-03-06T00:24:25;99505.72;;;9.98;100.00
11830;BME280;5972;42.134;24.718;2024-03-06T00:26:52;99547.09;;;10.23;100.00
11830;BME280;5972;42.134;24.718;2024-03-06T00:29:19;99545.59;;;10.26;100.00
11830;BME280;5972;42.134;24.718;2024-03-06T00:31:48;99548.31;;;10.26;100.00
11830;BME280;5972;42.134;24.718;2024-03-06T00:34:15;99551.81;;;10.26;100.00
11830;BME280;5972;42.134;24.718;2024-03-06T00:36:43;99555.19;;;10.23;100.00
11830;BME280;5972;42.134;24.718;2024-03-06T00:39:10;99548.31;;;10.26;100.00
11830;BME280;5972;42.134;24.718;2024-03-06T00:41:39;99542.53;;;10.15;100.00
11830;BME280;5972;42.134;24.718;2024-03-06T00:44:06;99535.91;;;10.13;100.00
11830;BME280;5972;42.134;24.718;2024-03-06T00:46:33;99565.22;;;10.23;100.00
11830;BME280;5972;42.134;24.718;2024-03-06T00:49:02;99544.50;;;10.02;100.00
11830;BME280;5972;42.134;24.718;2024-03-06T00:51:29;99566.88;;;10.03;100.00
11830;BME280;5972;42.134;24.718;2024-03-06T00:53:57;99579.97;;;10.01;100.00
11830;BME280;5972;42.134;24.718;2024-03-06T00:56:24;99572.50;;;9.98;100.00
11830;BME280;5972;42.134;24.718;2024-03-06T00:58:51;99573.06;;;10.03;100.00
11830;BME280;5972;42.134;24.718;2024-03-06T01:01:18;99568.47;;;10.04;100.00
11830;BME280;5972;42.134;24.718;2024-03-06T01:03:45;99567.91;;;9.98;100.00
11830;BME280;5972;42.134;24.718;2024-03-06T01:06:13;99571.41;;;9.99;100.00
11830;BME280;5972;42.134;24.718;2024-03-06T01:08:40;99583.91;;;9.91;100.00
11830;BME280;5972;42.134;24.718;2024-03-06T01:11:07;99549.19;;;9.81;100.00
11830;BME280;5972;42.134;24.718;2024-03-06T01:13:35;99573.53;;;9.93;100.00
11830;BME280;5972;42.134;24.718;2024-03-06T01:16:03;99567.09;;;9.98;100.00
11830;BME280;5972;42.134;24.718;2024-03-06T01:18:30;99566.91;;;9.91;100.00
11830;BME280;5972;42.134;24.718;2024-03-06T01:20:57;99565.00;;;9.91;100.00
11830;BME280;5972;42.134;24.718;2024-03-06T01:23:25;99563.28;;;9.87;100.00
11830;BME280;5972;42.134;24.718;2024-03-06T01:25:52;99571.28;;;9.95;100.00
11830;BME280;5972;42.134;24.718;2024-03-06T01:28:19;99582.22;;;9.99;100.00
11830;BME280;5972;42.134;24.718;2024-03-06T01:30:46;99585.03;;;10.02;100.00
11830;BME280;5972;42.134;24.718;2024-03-06T01:33:13;99578.16;;;9.93;100.00
11830;BME280;5972;42.134;24.718;2024-03-06T01:35:40;99563.28;;;9.87;100.00
11830;BME280;5972;42.134;24.718;2024-03-06T01:38:07;99589.28;;;10.03;100.00
11830;BME280;5972;42.134;24.718;2024-03-06T01:40:36;99579.16;;;10.00;100.00
11830;BME280;5972;42.134;24.718;2024-03-06T01:43:03;99584.25;;;10.02;100.00
11830;BME280;5972;42.134;24.718;2024-03-06T01:45:33;99594.84;;;10.07;100.00
11830;BME280;5972;42.134;24.718;2024-03-06T01:48:00;99594.38;;;10.05;100.00
11830;BME280;5972;42.134;24.718;2024-03-06T01:50:28;99566.00;;;9.99;100.00
11830;BME280;5972;42.134;24.718;2024-03-06T01:52:55;99545.06;;;9.84;100.00
11830;BME280;5972;42.134;24.718;2024-03-06T01:55:22;99590.91;;;10.17;100.00
11830;BME280;5972;42.134;24.718;2024-03-06T01:57:51;99579.72;;;10.06;100.00
11830;BME280;5972;42.134;24.718;2024-03-06T02:00:18;99582.09;;;10.08;100.00
11830;BME280;5972;42.134;24.718;2024-03-06T02:02:46;99567.56;;;10.00;100.00
11830;BME280;5972;42.134;24.718;2024-03-06T02:05:13;99598.09;;;10.13;100.00
11830;BME280;5972;42.134;24.718;2024-03-06T02:07:42;99590.00;;;10.13;100.00
11830;BME280;5972;42.134;24.718;2024-03-06T02:10:10;99593.34;;;10.10;100.00
11830;BME280;5972;42.134;24.718;2024-03-06T02:12:37;99541.78;;;9.78;100.00
11830;BME280;5972;42.134;24.718;2024-03-06T02:15:07;99587.75;;;10.02;100.00
11830;BME280;5972;42.134;24.718;2024-03-06T02:17:37;99568.56;;;9.83;100.00
11830;BME280;5972;42.134;24.718;2024-03-06T02:20:06;99598.75;;;9.97;100.00
11830;BME280;5972;42.134;24.718;2024-03-06T02:22:39;99594.50;;;9.96;100.00
11830;BME280;5972;42.134;24.718;2024-03-06T02:25:06;99591.66;;;9.93;100.00
11830;BME280;5972;42.134;24.718;2024-03-06T02:27:34;99570.94;;;9.73;100.00
11830;BME280;5972;42.134;24.718;2024-03-06T02:30:02;99598.31;;;9.95;100.00
11830;BME280;5972;42.134;24.718;2024-03-06T02:32:29;99595.63;;;9.95;100.00
11830;BME280;5972;42.134;24.718;2024-03-06T02:34:56;99599.78;;;9.93;100.00
11830;BME280;5972;42.134;24.718;2024-03-06T02:37:23;99601.03;;;9.95;100.00
11830;BME280;5972;42.134;24.718;2024-03-06T02:39:51;99592.03;;;9.91;100.00
11830;BME280;5972;42.134;24.718;2024-03-06T02:42:18;99602.16;;;9.94;100.00
11830;BME280;5972;42.134;24.718;2024-03-06T02:44:45;99596.06;;;9.97;100.00
11830;BME280;5972;42.134;24.718;2024-03-06T02:47:12;99579.94;;;9.77;100.00
11830;BME280;5972;42.134;24.718;2024-03-06T02:49:39;99595.06;;;9.90;100.00
11830;BME280;5972;42.134;24.718;2024-03-06T02:52:06;99599.66;;;9.89;100.00
11830;BME280;5972;42.134;24.718;2024-03-06T02:54:33;99603.16;;;10.02;100.00
11830;BME280;5972;42.134;24.718;2024-03-06T02:57:01;99589.72;;;9.81;100.00
11830;BME280;5972;42.134;24.718;2024-03-06T02:59:30;99594.50;;;9.96;100.00
11830;BME280;5972;42.134;24.718;2024-03-06T03:01:57;99605.97;;;10.06;100.00
11830;BME280;5972;42.134;24.718;2024-03-06T03:04:25;99571.19;;;9.80;100.00
11830;BME280;5972;42.134;24.718;2024-03-06T03:06:52;99604.28;;;10.01;100.00
11830;BME280;5972;42.134;24.718;2024-03-06T03:09:19;99561.16;;;9.80;100.00
11830;BME280;5972;42.134;24.718;2024-03-06T03:11:47;99580.66;;;9.86;100.00
11830;BME280;5972;42.134;24.718;2024-03-06T03:14:15;99597.19;;;9.96;100.00
11830;BME280;5972;42.134;24.718;2024-03-06T03:16:42;99594.28;;;10.01;100.00
11830;BME280;5972;42.134;24.718;2024-03-06T03:19:09;99592.13;;;9.95;100.00
11830;BME280;5972;42.134;24.718;2024-03-06T03:21:36;99587.28;;;9.88;100.00
11830;BME280;5972;42.134;24.718;2024-03-06T03:24:05;99583.22;;;9.82;100.00
11830;BME280;5972;42.134;24.718;2024-03-06T03:26:32;99605.31;;;9.96;100.00
11830;BME280;5972;42.134;24.718;2024-03-06T03:28:59;99611.03;;;9.95;100.00
11830;BME280;5972;42.134;24.718;2024-03-06T03:31:27;99604.38;;;9.92;100.00
11830;BME280;5972;42.134;24.718;2024-03-06T03:33:54;99589.31;;;9.79;100.00
11830;BME280;5972;42.134;24.718;2024-03-06T03:36:21;99584.78;;;9.83;100.00
11830;BME280;5972;42.134;24.718;2024-03-06T03:38:48;99603.72;;;9.95;100.00
11830;BME280;5972;42.134;24.718;2024-03-06T03:41:15;99610.72;;;9.96;100.00
11830;BME280;5972;42.134;24.718;2024-03-06T03:43:43;99607.31;;;9.87;100.00
11830;BME280;5972;42.134;24.718;2024-03-06T03:46:10;99587.22;;;9.64;100.00
11830;BME280;5972;42.134;24.718;2024-03-06T03:48:38;99615.88;;;9.89;100.00
11830;BME280;5972;42.134;24.718;2024-03-06T03:51:06;99618.47;;;9.86;100.00
11830;BME280;5972;42.134;24.718;2024-03-06T03:53:33;99616.53;;;9.86;100.00
11830;BME280;5972;42.134;24.718;2024-03-06T03:56:01;99618.34;;;9.82;100.00
11830;BME280;5972;42.134;24.718;2024-03-06T03:58:28;99623.41;;;9.84;100.00
11830;BME280;5972;42.134;24.718;2024-03-06T04:00:55;99592.75;;;9.55;100.00
11830;BME280;5972;42.134;24.718;2024-03-06T04:03:22;99633.56;;;9.75;100.00
11830;BME280;5972;42.134;24.718;2024-03-06T04:05:51;99623.72;;;9.70;100.00
11830;BME280;5972;42.134;24.718;2024-03-06T04:08:18;99634.66;;;9.74;100.00
11830;BME280;5972;42.134;24.718;2024-03-06T04:10:45;99631.97;;;9.74;100.00
11830;BME280;5972;42.134;24.718;2024-03-06T04:13:12;99629.00;;;9.67;100.00
11830;BME280;5972;42.134;24.718;2024-03-06T04:15:39;99636.09;;;9.71;100.00
11830;BME280;5972;42.134;24.718;2024-03-06T04:18:06;99632.50;;;9.67;100.00
11830;BME280;5972;42.134;24.718;2024-03-06T04:20:33;99637.81;;;9.64;100.00
11830;BME280;5972;42.134;24.718;2024-03-06T04:23:02;99616.81;;;9.48;100.00
11830;BME280;5972;42.134;24.718;2024-03-06T04:25:29;99637.09;;;9.54;100.00
11830;BME280;5972;42.134;24.718;2024-03-06T04:27:56;99635.84;;;9.52;100.00
11830;BME280;5972;42.134;24.718;2024-03-06T04:30:23;99645.28;;;9.46;100.00
11830;BME280;5972;42.134;24.718;2024-03-06T04:32:50;99634.34;;;9.42;100.00
11830;BME280;5972;42.134;24.718;2024-03-06T04:35:17;99639.16;;;9.37;100.00
11830;BME280;5972;42.134;24.718;2024-03-06T04:37:44;99637.66;;;9.27;100.00
11830;BME280;5972;42.134;24.718;2024-03-06T04:40:13;99537.31;;;8.59;100.00
11830;BME280;5972;42.134;24.718;2024-03-06T04:42:45;99595.25;;;8.95;100.00
11830;BME280;5972;42.134;24.718;2024-03-06T04:45:15;99654.97;;;9.26;100.00
11830;BME280;5972;42.134;24.718;2024-03-06T04:47:42;99639.28;;;9.07;100.00
11830;BME280;5972;42.134;24.718;2024-03-06T04:50:10;99657.03;;;9.08;100.00
11830;BME280;5972;42.134;24.718;2024-03-06T04:52:38;99638.91;;;8.97;100.00
11830;BME280;5972;42.134;24.718;2024-03-06T04:55:06;99659.03;;;8.99;100.00
11830;BME280;5972;42.134;24.718;2024-03-06T04:57:37;99613.56;;;8.68;100.00
11830;BME280;5972;42.134;24.718;2024-03-06T05:00:05;99658.13;;;8.95;100.00
11830;BME280;5972;42.134;24.718;2024-03-06T05:02:35;99644.28;;;8.76;100.00
11830;BME280;5972;42.134;24.718;2024-03-06T05:05:08;99659.31;;;8.86;100.00
11830;BME280;5972;42.134;24.718;2024-03-06T05:07:37;99590.94;;;8.31;100.00
11830;BME280;5972;42.134;24.718;2024-03-06T05:10:10;99642.75;;;8.66;100.00
11830;BME280;5972;42.134;24.718;2024-03-06T05:12:38;99642.75;;;8.66;100.00
11830;BME280;5972;42.134;24.718;2024-03-06T05:15:07;99641.38;;;8.60;100.00
11830;BME280;5972;42.134;24.718;2024-03-06T05:17:38;99604.09;;;8.33;100.00
11830;BME280;5972;42.134;24.718;2024-03-06T05:20:15;99662.84;;;8.77;100.00
11830;BME280;5972;42.134;24.718;2024-03-06T05:22:43;99656.38;;;8.70;100.00
11830;BME280;5972;42.134;24.718;2024-03-06T05:25:10;99641.69;;;8.59;100.00
11830;BME280;5972;42.134;24.718;2024-03-06T05:27:40;99663.34;;;8.71;100.00
11830;BME280;5972;42.134;24.718;2024-03-06T05:30:07;99682.59;;;8.90;100.00
11830;BME280;5972;42.134;24.718;2024-03-06T05:32:34;99590.44;;;8.38;100.00
11830;BME280;5972;42.134;24.718;2024-03-06T05:35:05;99698.28;;;8.97;100.00
11830;BME280;5972;42.134;24.718;2024-03-06T05:37:35;99698.41;;;9.00;100.00
11830;BME280;5972;42.134;24.718;2024-03-06T05:40:03;99692.47;;;9.07;100.00
11830;BME280;5972;42.134;24.718;2024-03-06T05:42:31;99710.44;;;9.24;100.00
11830;BME280;5972;42.134;24.718;2024-03-06T05:45:04;99709.47;;;9.28;100.00
11830;BME280;5972;42.134;24.718;2024-03-06T05:47:37;99707.88;;;9.27;100.00
11830;BME280;5972;42.134;24.718;2024-03-06T05:50:05;99676.09;;;9.12;100.00
11830;BME280;5972;42.134;24.718;2024-03-06T05:52:32;99714.91;;;9.40;100.00
11830;BME280;5972;42.134;24.718;2024-03-06T05:55:01;99629.34;;;8.79;100.00
11830;BME280;5972;42.134;24.718;2024-03-06T05:57:31;99653.81;;;9.15;100.00
11830;BME280;5972;42.134;24.718;2024-03-06T05:59:58;99643.09;;;9.06;100.00
11830;BME280;5972;42.134;24.718;2024-03-06T06:02:27;99703.84;;;9.33;100.00
11830;BME280;5972;42.134;24.718;2024-03-06T06:04:54;99720.72;;;9.51;100.00
11830;BME280;5972;42.134;24.718;2024-03-06T06:07:21;99684.38;;;9.28;100.00
11830;BME280;5972;42.134;24.718;2024-03-06T06:09:48;99718.41;;;9.41;100.00
11830;BME280;5972;42.134;24.718;2024-03-06T06:12:15;99725.53;;;9.45;100.00
11830;BME280;5972;42.134;24.718;2024-03-06T06:14:42;99721.22;;;9.44;100.00
11830;BME280;5972;42.134;24.718;2024-03-06T06:17:09;99706.94;;;9.44;100.00
11830;BME280;5972;42.134;24.718;2024-03-06T06:19:41;99715.56;;;9.58;100.00
11830;BME280;5972;42.134;24.718;2024-03-06T06:22:09;99732.16;;;9.81;100.00
11830;BME280;5972;42.134;24.718;2024-03-06T06:24:37;99722.97;;;9.94;100.00
11830;BME280;5972;42.134;24.718;2024-03-06T06:27:04;99718.00;;;10.17;100.00
11830;BME280;5972;42.134;24.718;2024-03-06T06:29:31;99713.97;;;10.47;100.00
11830;BME280;5972;42.134;24.718;2024-03-06T06:31:58;99711.28;;;10.47;100.00
11830;BME280;5972;42.134;24.718;2024-03-06T06:34:25;99741.25;;;10.78;100.00
11830;BME280;5972;42.134;24.718;2024-03-06T06:36:54;99735.13;;;10.81;100.00
11830;BME280;5972;42.134;24.718;2024-03-06T06:39:21;99709.88;;;10.77;100.00
11830;BME280;5972;42.134;24.718;2024-03-06T06:41:48;99729.94;;;11.13;100.00
11830;BME280;5972;42.134;24.718;2024-03-06T06:44:15;99740.13;;;11.32;100.00
11830;BME280;5972;42.134;24.718;2024-03-06T06:46:42;99716.09;;;11.42;100.00
11830;BME280;5972;42.134;24.718;2024-03-06T06:49:09;99733.63;;;11.88;100.00
11830;BME280;5972;42.134;24.718;2024-03-06T06:51:36;99738.41;;;12.70;100.00
11830;BME280;5972;42.134;24.718;2024-03-06T06:54:04;99730.53;;;13.15;100.00
11830;BME280;5972;42.134;24.718;2024-03-06T06:56:31;99728.03;;;12.91;100.00
11830;BME280;5972;42.134;24.718;2024-03-06T06:59:01;99744.88;;;13.31;100.00
11830;BME280;5972;42.134;24.718;2024-03-06T07:01:28;99744.13;;;14.57;100.00
11830;BME280;5972;42.134;24.718;2024-03-06T07:03:55;99701.22;;;15.63;100.00
11830;BME280;5972;42.134;24.718;2024-03-06T07:06:22;99735.97;;;16.50;95.47
11830;BME280;5972;42.134;24.718;2024-03-06T07:08:49;99730.25;;;17.24;83.20
11830;BME280;5972;42.134;24.718;2024-03-06T07:11:18;99703.59;;;18.08;74.47
11830;BME280;5972;42.134;24.718;2024-03-06T07:13:45;99701.66;;;18.47;66.75
11830;BME280;5972;42.134;24.718;2024-03-06T07:16:15;99717.31;;;18.68;64.59
11830;BME280;5972;42.134;24.718;2024-03-06T07:18:42;99703.22;;;18.69;64.41
11830;BME280;5972;42.134;24.718;2024-03-06T07:21:09;99719.56;;;19.23;62.54
11830;BME280;5972;42.134;24.718;2024-03-06T07:23:39;99724.97;;;19.55;59.59
11830;BME280;5972;42.134;24.718;2024-03-06T07:26:06;99721.03;;;19.59;57.23
11830;BME280;5972;42.134;24.718;2024-03-06T07:28:36;99716.41;;;19.38;57.85
11830;BME280;5972;42.134;24.718;2024-03-06T07:31:09;99710.44;;;19.61;57.17
11830;BME280;5972;42.134;24.718;2024-03-06T07:33:51;99696.75;;;19.40;56.25
11830;BME280;5972;42.134;24.718;2024-03-06T07:36:19;99580.03;;;19.25;55.36
11830;BME280;5972;42.134;24.718;2024-03-06T07:39:15;99671.78;;;19.97;54.79
11830;BME280;5972;42.134;24.718;2024-03-06T07:41:57;99670.19;;;19.99;53.50
11830;BME280;5972;42.134;24.718;2024-03-06T07:44:37;99571.19;;;20.13;53.20
11830;BME280;5972;42.134;24.718;2024-03-06T07:47:06;99659.66;;;21.21;50.14
11830;BME280;5972;42.134;24.718;2024-03-06T07:49:44;99629.25;;;21.31;48.67
11830;BME280;5972;42.134;24.718;2024-03-06T07:52:15;99737.25;;;22.07;47.94
11830;BME280;5972;42.134;24.718;2024-03-06T07:54:47;99700.00;;;21.95;45.94
11830;BME280;5972;42.134;24.718;2024-03-06T07:57:39;99576.25;;;20.93;46.33
11830;BME280;5972;42.134;24.718;2024-03-06T08:00:08;99643.78;;;21.62;45.77
11830;BME280;5972;42.134;24.718;2024-03-06T08:02:41;99715.88;;;22.37;44.29
11830;BME280;5972;42.134;24.718;2024-03-06T08:05:12;99710.56;;;22.50;43.15
11830;BME280;5972;42.134;24.718;2024-03-06T08:07:52;99720.25;;;22.35;43.72
11830;BME280;5972;42.134;24.718;2024-03-06T08:10:20;99671.19;;;22.50;42.54
11830;BME280;5972;42.134;24.718;2024-03-06T08:12:48;99730.81;;;23.10;42.82
11830;BME280;5972;42.134;24.718;2024-03-06T08:15:18;99658.06;;;22.34;43.49
11830;BME280;5972;42.134;24.718;2024-03-06T08:17:48;99649.16;;;21.73;43.77
11830;BME280;5972;42.134;24.718;2024-03-06T08:20:18;99722.00;;;21.98;44.52
11830;BME280;5972;42.134;24.718;2024-03-06T08:22:45;99692.50;;;21.35;44.30
11830;BME280;5972;42.134;24.718;2024-03-06T08:25:14;99722.50;;;20.85;46.19
11830;BME280;5972;42.134;24.718;2024-03-06T08:27:49;99624.47;;;20.26;46.51
11830;BME280;5972;42.134;24.718;2024-03-06T08:30:32;99670.16;;;21.60;44.59
11830;BME280;5972;42.134;24.718;2024-03-06T08:33:02;99665.16;;;22.08;42.77
11830;BME280;5972;42.134;24.718;2024-03-06T08:35:31;99627.47;;;21.75;42.96
11830;BME280;5972;42.134;24.718;2024-03-06T08:38:02;99610.94;;;21.75;42.41
11830;BME280;5972;42.134;24.718;2024-03-06T08:40:42;99664.84;;;22.03;42.78
11830;BME280;5972;42.134;24.718;2024-03-06T08:43:18;99657.00;;;22.01;43.14
11830;BME280;5972;42.134;24.718;2024-03-06T08:45:48;99630.16;;;22.75;41.05
11830;BME280;5972;42.134;24.718;2024-03-06T08:48:15;99582.84;;;22.53;41.02
11830;BME280;5972;42.134;24.718;2024-03-06T08:50:46;99675.44;;;23.37;40.32
11830;BME280;5972;42.134;24.718;2024-03-06T08:53:16;99610.84;;;23.14;39.89
11830;BME280;5972;42.134;24.718;2024-03-06T08:55:45;99690.53;;;23.88;39.59
11830;BME280;5972;42.134;24.718;2024-03-06T08:58:15;99696.38;;;24.58;38.33
11830;BME280;5972;42.134;24.718;2024-03-06T09:00:42;99628.13;;;24.39;38.06
11830;BME280;5972;42.134;24.718;2024-03-06T09:03:20;99609.53;;;23.91;38.96
11830;BME280;5972;42.134;24.718;2024-03-06T09:06:18;99615.38;;;22.19;41.36
11830;BME280;5972;42.134;24.718;2024-03-06T09:08:48;99636.19;;;22.90;41.47
11830;BME280;5972;42.134;24.718;2024-03-06T09:11:21;99689.91;;;24.49;39.17
11830;BME280;5972;42.134;24.718;2024-03-06T09:13:50;99602.53;;;24.19;38.97
11830;BME280;5972;42.134;24.718;2024-03-06T09:16:18;99589.31;;;24.71;36.59
11830;BME280;5972;42.134;24.718;2024-03-06T09:18:56;99709.75;;;25.21;36.22
11830;BME280;5972;42.134;24.718;2024-03-06T09:21:27;99651.56;;;24.34;37.65
11830;BME280;5972;42.134;24.718;2024-03-06T09:23:58;99686.03;;;25.20;36.46
11830;BME280;5972;42.134;24.718;2024-03-06T09:26:26;99648.47;;;25.06;36.59
11830;BME280;5972;42.134;24.718;2024-03-06T09:29:06;99632.16;;;24.96;36.58
11830;BME280;5972;42.134;24.718;2024-03-06T09:31:36;99632.41;;;25.01;36.10
11830;BME280;5972;42.134;24.718;2024-03-06T09:34:06;99607.31;;;24.63;36.38
11830;BME280;5972;42.134;24.718;2024-03-06T09:37:03;99537.28;;;24.37;37.04
11830;BME280;5972;42.134;24.718;2024-03-06T09:39:36;99561.03;;;24.51;36.09
11830;BME280;5972;42.134;24.718;2024-03-06T09:42:05;99675.78;;;25.33;36.64
11830;BME280;5972;42.134;24.718;2024-03-06T09:44:34;99621.47;;;25.36;36.44
11830;BME280;5972;42.134;24.718;2024-03-06T09:47:05;99621.53;;;24.49;35.94
11830;BME280;5972;42.134;24.718;2024-03-06T09:49:35;99618.16;;;23.41;38.23
11830;BME280;5972;42.134;24.718;2024-03-06T09:52:06;99665.97;;;24.26;37.70
11830;BME280;5972;42.134;24.718;2024-03-06T09:54:36;99665.63;;;24.40;37.84
11830;BME280;5972;42.134;24.718;2024-03-06T09:57:25;99651.34;;;24.41;36.72
11830;BME280;5972;42.134;24.718;2024-03-06T09:59:55;99559.25;;;24.28;36.63
11830;BME280;5972;42.134;24.718;2024-03-06T10:02:31;99617.94;;;24.65;36.45
11830;BME280;5972;42.134;24.718;2024-03-06T10:05:24;99505.28;;;23.91;36.19
11830;BME280;5972;42.134;24.718;2024-03-06T10:07:53;99498.72;;;24.18;35.84
11830;BME280;5972;42.134;24.718;2024-03-06T10:10:20;99670.50;;;24.65;36.36
11830;BME280;5972;42.134;24.718;2024-03-06T10:12:54;99590.47;;;24.29;36.55
11830;BME280;5972;42.134;24.718;2024-03-06T10:15:22;99639.22;;;24.68;36.82
11830;BME280;5972;42.134;24.718;2024-03-06T10:17:52;99626.53;;;24.83;36.34
11830;BME280;5972;42.134;24.718;2024-03-06T10:20:22;99565.19;;;25.26;35.13
11830;BME280;5972;42.134;24.718;2024-03-06T10:22:54;99607.53;;;25.39;35.40
11830;BME280;5972;42.134;24.718;2024-03-06T10:25:22;99612.41;;;25.48;34.81
11830;BME280;5972;42.134;24.718;2024-03-06T10:28:04;99614.09;;;25.58;34.25
11830;BME280;5972;42.134;24.718;2024-03-06T10:30:32;99580.63;;;23.95;36.07
11830;BME280;5972;42.134;24.718;2024-03-06T10:33:01;99596.03;;;21.72;39.64
11830;BME280;5972;42.134;24.718;2024-03-06T10:35:33;99604.91;;;23.16;38.45
11830;BME280;5972;42.134;24.718;2024-03-06T10:38:02;99626.97;;;23.88;37.08
11830;BME280;5972;42.134;24.718;2024-03-06T10:40:31;99607.38;;;23.10;37.58
11830;BME280;5972;42.134;24.718;2024-03-06T10:42:59;99588.66;;;23.90;35.88
11830;BME280;5972;42.134;24.718;2024-03-06T10:45:35;99597.28;;;24.24;34.90
11830;BME280;5972;42.134;24.718;2024-03-06T10:48:06;99578.16;;;24.46;33.90
11830;BME280;5972;42.134;24.718;2024-03-06T10:50:35;99608.09;;;24.64;34.09
11830;BME280;5972;42.134;24.718;2024-03-06T10:53:05;99608.25;;;23.95;34.71
11830;BME280;5972;42.134;24.718;2024-03-06T10:55:34;99596.06;;;24.09;34.97
11830;BME280;5972;42.134;24.718;2024-03-06T10:58:03;99595.88;;;24.32;34.25
11830;BME280;5972;42.134;24.718;2024-03-06T11:00:34;99514.47;;;23.56;33.69
11830;BME280;5972;42.134;24.718;2024-03-06T11:03:05;99580.50;;;24.31;33.77
11830;BME280;5972;42.134;24.718;2024-03-06T11:05:35;99568.84;;;24.08;33.89
11830;BME280;5972;42.134;24.718;2024-03-06T11:08:06;99575.06;;;24.12;33.88
11830;BME280;5972;42.134;24.718;2024-03-06T11:10:34;99489.28;;;23.54;34.31
11830;BME280;5972;42.134;24.718;2024-03-06T11:13:02;99577.56;;;24.38;33.75
11830;BME280;5972;42.134;24.718;2024-03-06T11:15:30;99581.16;;;24.52;33.36
11830;BME280;5972;42.134;24.718;2024-03-06T11:17:57;99587.16;;;24.34;33.25
11830;BME280;5972;42.134;24.718;2024-03-06T11:20:25;99579.63;;;23.17;35.43
11830;BME280;5972;42.134;24.718;2024-03-06T11:23:04;99548.72;;;22.04;36.30
11830;BME280;5972;42.134;24.718;2024-03-06T11:26:04;99571.41;;;21.62;37.71
11830;BME280;5972;42.134;24.718;2024-03-06T11:28:33;99532.09;;;21.61;37.56
11830;BME280;5972;42.134;24.718;2024-03-06T11:31:01;99564.38;;;21.57;37.68
11830;BME280;5972;42.134;24.718;2024-03-06T11:33:34;99533.56;;;20.82;38.60
11830;BME280;5972;42.134;24.718;2024-03-06T11:36:15;99539.00;;;20.85;39.63
11830;BME280;5972;42.134;24.718;2024-03-06T11:38:51;99547.78;;;21.07;39.40
11830;BME280;5972;42.134;24.718;2024-03-06T11:41:20;99540.16;;;21.72;38.24
11830;BME280;5972;42.134;24.718;2024-03-06T11:43:50;99481.41;;;21.32;38.44
11830;BME280;5972;42.134;24.718;2024-03-06T11:46:19;99530.59;;;21.80;37.86
11830;BME280;5972;42.134;24.718;2024-03-06T11:48:52;99529.75;;;21.83;38.08
11830;BME280;5972;42.134;24.718;2024-03-06T11:51:24;99518.78;;;21.79;37.86
11830;BME280;5972;42.134;24.718;2024-03-06T11:53:53;99487.16;;;21.41;37.94
11830;BME280;5972;42.134;24.718;2024-03-06T11:56:25;99388.84;;;20.64;38.30
11830;BME280;5972;42.134;24.718;2024-03-06T11:58:58;99497.88;;;21.35;38.29
11830;BME280;5972;42.134;24.718;2024-03-06T12:01:30;99550.28;;;21.55;37.82
11830;BME280;5972;42.134;24.718;2024-03-06T12:04:02;99420.28;;;20.63;38.37
11830;BME280;5972;42.134;24.718;2024-03-06T12:06:30;99485.81;;;20.68;38.27
11830;BME280;5972;42.134;24.718;2024-03-06T12:09:01;99371.97;;;18.72;40.90
11830;BME280;5972;42.134;24.718;2024-03-06T12:11:36;99538.50;;;18.07;50.78
11830;BME280;5972;42.134;24.718;2024-03-06T12:14:04;99409.91;;;16.76;56.54
11830;BME280;5972;42.134;24.718;2024-03-06T12:16:33;99446.19;;;16.66;61.86
11830;BME280;5972;42.134;24.718;2024-03-06T12:19:00;99452.28;;;16.38;64.77
11830;BME280;5972;42.134;24.718;2024-03-06T12:21:35;99508.06;;;16.41;71.07
11830;BME280;5972;42.134;24.718;2024-03-06T12:24:06;99535.38;;;16.41;75.54
11830;BME280;5972;42.134;24.718;2024-03-06T12:26:38;99521.59;;;16.19;79.39
11830;BME280;5972;42.134;24.718;2024-03-06T12:29:06;99521.06;;;16.00;78.69
11830;BME280;5972;42.134;24.718;2024-03-06T12:31:35;99388.06;;;14.84;81.53
11830;BME280;5972;42.134;24.718;2024-03-06T12:34:05;99418.03;;;14.84;84.91
11830;BME280;5972;42.134;24.718;2024-03-06T12:36:33;99519.84;;;15.43;86.55
11830;BME280;5972;42.134;24.718;2024-03-06T12:39:07;99520.13;;;15.78;87.23
11830;BME280;5972;42.134;24.718;2024-03-06T12:41:38;99532.25;;;15.77;89.19
11830;BME280;5972;42.134;24.718;2024-03-06T12:44:06;99526.44;;;15.86;89.33
11830;BME280;5972;42.134;24.718;2024-03-06T12:46:33;99517.34;;;15.67;88.28
11830;BME280;5972;42.134;24.718;2024-03-06T12:49:00;99529.97;;;15.90;87.68
11830;BME280;5972;42.134;24.718;2024-03-06T12:51:27;99518.47;;;15.63;88.39
11830;BME280;5972;42.134;24.718;2024-03-06T12:53:58;99439.09;;;15.31;91.07
11830;BME280;5972;42.134;24.718;2024-03-06T12:56:29;99510.31;;;16.21;88.75
11830;BME280;5972;42.134;24.718;2024-03-06T12:58:56;99514.75;;;15.85;85.66
11830;BME280;5972;42.134;24.718;2024-03-06T13:01:23;99489.50;;;15.48;89.04
11830;BME280;5972;42.134;24.718;2024-03-06T13:03:50;99530.38;;;15.92;90.89
11830;BME280;5972;42.134;24.718;2024-03-06T13:06:18;99527.88;;;16.23;88.05
11830;BME280;5972;42.134;24.718;2024-03-06T13:08:47;99470.00;;;15.97;83.77
11830;BME280;5972;42.134;24.718;2024-03-06T13:11:14;99500.81;;;16.01;84.27